createdAt,value
2018-07-04T00:01:51.798Z,2.70
2018-07-04T00:04:31.246Z,2.57
2018-07-04T00:07:10.807Z,5.63
2018-07-04T00:09:50.483Z,3.73
2018-07-04T00:12:30.036Z,3.87
2018-07-04T00:15:09.615Z,2.47
2018-07-04T00:17:49.452Z,3.20
2018-07-04T00:20:34.534Z,3.13
2018-07-04T00:23:14.187Z,3.40
2018-07-04T00:25:53.667Z,3.53
2018-07-04T00:28:33.546Z,4.30
2018-07-04T00:31:13.214Z,2.03
2018-07-04T00:33:52.978Z,4.47
2018-07-04T00:36:32.654Z,3.57
2018-07-04T00:39:12.418Z,5.27
2018-07-04T00:41:52.217Z,2.60
2018-07-04T00:44:31.727Z,3.13
2018-07-04T00:47:11.359Z,4.23
2018-07-04T00:49:51.194Z,5.07
2018-07-04T00:52:30.623Z,4.00
2018-07-04T00:55:10.074Z,2.47
2018-07-04T00:57:49.599Z,3.37
2018-07-04T01:00:29.168Z,2.80
2018-07-04T01:03:08.889Z,3.13
2018-07-04T01:05:48.563Z,2.60
2018-07-04T01:08:28.114Z,3.63
2018-07-04T01:11:07.624Z,3.80
2018-07-04T01:13:47.246Z,3.77
2018-07-04T01:16:26.914Z,4.27
2018-07-04T01:19:06.554Z,2.53
2018-07-04T01:21:46.066Z,3.60
2018-07-04T01:24:25.606Z,2.70
2018-07-04T01:27:05.370Z,3.83
2018-07-04T01:29:45.022Z,4.53
2018-07-04T01:32:24.550Z,2.30
2018-07-04T01:35:04.026Z,5.50
2018-07-04T01:37:43.506Z,3.43
2018-07-04T01:40:23.015Z,4.83
2018-07-04T01:43:02.514Z,2.87
2018-07-04T01:45:42.330Z,5.23
2018-07-04T01:48:21.827Z,2.70
2018-07-04T01:51:01.484Z,5.00
2018-07-04T01:53:41.119Z,4.10
2018-07-04T01:56:20.646Z,4.33
2018-07-04T01:59:00.349Z,5.70
2018-07-04T02:01:39.982Z,4.37
2018-07-04T02:04:19.494Z,2.80
2018-07-04T02:06:58.987Z,4.17
2018-07-04T02:09:38.501Z,4.33
2018-07-04T02:12:18.129Z,6.37
2018-07-04T02:14:57.572Z,2.87
2018-07-04T02:17:37.223Z,3.93
2018-07-04T02:20:17.154Z,3.93
2018-07-04T02:22:57.091Z,2.90
2018-07-04T02:25:36.675Z,3.53
2018-07-04T02:28:16.236Z,3.40
2018-07-04T02:30:55.738Z,3.57
2018-07-04T02:33:35.387Z,6.53
2018-07-04T02:36:15.039Z,5.43
2018-07-04T02:38:54.670Z,4.80
2018-07-04T02:41:34.231Z,4.53
2018-07-04T02:44:13.766Z,3.77
2018-07-04T02:46:53.523Z,2.70
2018-07-04T02:49:33.194Z,5.93
2018-07-04T02:52:12.779Z,5.83
2018-07-04T02:54:52.528Z,3.57
2018-07-04T02:57:32.055Z,5.40
2018-07-04T03:00:11.603Z,3.90
2018-07-04T03:02:51.147Z,3.23
2018-07-04T03:05:30.763Z,3.20
2018-07-04T03:08:10.347Z,4.33
2018-07-04T03:10:49.970Z,4.03
2018-07-04T03:13:29.515Z,3.47
2018-07-04T03:16:09.144Z,6.00
2018-07-04T03:18:48.861Z,3.40
2018-07-04T03:21:28.451Z,3.63
2018-07-04T03:24:08.080Z,4.27
2018-07-04T03:26:47.783Z,4.30
2018-07-04T03:29:27.546Z,2.53
2018-07-04T03:32:07.070Z,3.63
2018-07-04T03:34:46.604Z,2.67
2018-07-04T03:37:26.275Z,2.77
2018-07-04T03:40:05.794Z,5.57
2018-07-04T03:42:45.579Z,4.70
2018-07-04T03:45:25.195Z,4.40
2018-07-04T03:48:05.124Z,5.17
2018-07-04T03:50:44.594Z,5.07
2018-07-04T03:53:24.098Z,3.87
2018-07-04T03:56:03.791Z,6.27
2018-07-04T03:58:43.302Z,3.90
2018-07-04T04:01:22.735Z,3.57
2018-07-04T04:04:02.360Z,5.50
2018-07-04T04:06:41.748Z,5.10
2018-07-04T04:09:21.342Z,4.50
2018-07-04T04:12:00.975Z,3.53
2018-07-04T04:14:40.461Z,5.43
2018-07-04T04:17:20.306Z,8.27
2018-07-04T04:19:59.879Z,3.90
2018-07-04T04:22:39.543Z,4.97
2018-07-04T04:25:19.041Z,7.37
2018-07-04T04:27:58.753Z,8.50
2018-07-04T04:30:38.379Z,5.10
2018-07-04T04:33:17.940Z,9.97
2018-07-04T04:35:57.444Z,11.73
2018-07-04T04:38:37.115Z,6.50
2018-07-04T04:41:16.703Z,5.03
2018-07-04T04:43:56.487Z,7.37
2018-07-04T04:46:36.012Z,5.90
2018-07-04T04:49:15.707Z,7.10
2018-07-04T04:51:55.366Z,6.40
2018-07-04T04:54:34.806Z,6.30
2018-07-04T04:57:14.464Z,5.97
2018-07-04T04:59:54.134Z,13.63
2018-07-04T05:02:33.643Z,8.13
2018-07-04T05:05:13.299Z,10.37
2018-07-04T05:07:52.861Z,9.20
2018-07-04T05:10:32.502Z,10.50
2018-07-04T05:13:12.326Z,6.97
2018-07-04T05:15:51.991Z,5.10
2018-07-04T05:18:31.739Z,14.73
2018-07-04T05:21:11.243Z,5.33
2018-07-04T05:23:50.723Z,8.37
2018-07-04T05:26:30.278Z,5.10
2018-07-04T05:29:09.963Z,4.57
2018-07-04T05:31:49.467Z,7.23
2018-07-04T05:34:29.058Z,9.20
2018-07-04T05:37:08.783Z,8.00
2018-07-04T05:39:48.564Z,9.93
2018-07-04T05:42:28.334Z,14.47
2018-07-04T05:45:07.862Z,17.60
2018-07-04T05:47:47.426Z,12.53
2018-07-04T05:50:26.895Z,11.00
2018-07-04T05:53:06.419Z,10.33
2018-07-04T05:55:45.869Z,7.87
2018-07-04T05:58:25.578Z,9.20
2018-07-04T06:01:05.219Z,7.63
2018-07-04T06:03:45.200Z,5.90
2018-07-04T06:06:25.098Z,8.47
2018-07-04T06:09:05.197Z,9.17
2018-07-04T06:11:44.691Z,4.60
2018-07-04T06:14:24.474Z,8.60
2018-07-04T06:17:04.173Z,6.03
2018-07-04T06:19:43.764Z,9.23
2018-07-04T06:22:23.174Z,5.83
2018-07-04T06:25:02.711Z,7.70
2018-07-04T06:27:42.199Z,7.47
2018-07-04T06:30:21.695Z,6.77
2018-07-04T06:33:01.247Z,4.97
2018-07-04T06:35:40.684Z,5.33
2018-07-04T06:38:07.880Z,5.23
2018-07-04T06:40:35.043Z,6.23
2018-07-04T06:43:02.239Z,9.57
2018-07-04T06:45:29.391Z,7.87
2018-07-04T06:47:56.583Z,6.80
2018-07-04T06:50:23.739Z,4.97
2018-07-04T06:52:50.895Z,5.20
2018-07-04T06:55:18.054Z,6.63
2018-07-04T06:57:45.234Z,5.40
2018-07-04T07:00:12.424Z,7.67
2018-07-04T07:02:39.583Z,5.57
2018-07-04T07:05:19.089Z,5.93
2018-07-04T07:07:58.526Z,5.83
2018-07-04T07:10:38.152Z,5.83
2018-07-04T07:13:17.895Z,4.30
2018-07-04T07:15:57.454Z,4.27
2018-07-04T07:18:37.107Z,5.10
2018-07-04T07:21:16.678Z,3.07
2018-07-04T07:23:56.283Z,4.03
2018-07-04T07:26:35.912Z,4.53
2018-07-04T07:29:15.390Z,6.10
2018-07-04T07:31:55.066Z,4.63
2018-07-04T07:34:34.615Z,5.73
2018-07-04T07:37:14.298Z,4.13
2018-07-04T07:39:53.799Z,3.27
2018-07-04T07:42:33.512Z,4.73
2018-07-04T07:45:12.993Z,3.03
2018-07-04T07:47:52.471Z,3.73
2018-07-04T07:50:32.059Z,4.73
2018-07-04T07:53:11.611Z,5.57
2018-07-04T07:55:51.151Z,3.57
2018-07-04T07:58:30.818Z,1.90
2018-07-04T08:01:10.443Z,2.43
2018-07-04T08:03:49.875Z,6.37
2018-07-04T08:06:29.302Z,4.30
2018-07-04T08:09:08.827Z,3.13
2018-07-04T08:11:48.382Z,3.63
2018-07-04T08:14:27.883Z,3.67
2018-07-04T08:17:07.230Z,3.20
2018-07-04T08:19:46.787Z,2.93
2018-07-04T08:22:26.424Z,3.53
2018-07-04T08:25:05.867Z,6.60
2018-07-04T08:27:45.515Z,3.20
2018-07-04T08:30:25.019Z,6.17
2018-07-04T08:33:04.584Z,3.57
2018-07-04T08:35:44.059Z,4.93
2018-07-04T08:38:23.406Z,2.97
2018-07-04T08:41:03.120Z,2.90
2018-07-04T08:43:42.771Z,2.77
2018-07-04T08:46:22.287Z,5.13
2018-07-04T08:49:01.875Z,4.77
2018-07-04T08:51:41.447Z,3.47
2018-07-04T08:54:21.106Z,3.23
2018-07-04T08:57:00.559Z,3.30
2018-07-04T08:59:40.023Z,3.33
2018-07-04T09:02:19.675Z,3.73
2018-07-04T09:04:59.179Z,3.67
2018-07-04T09:07:38.642Z,4.80
2018-07-04T09:10:18.310Z,3.13
2018-07-04T09:12:57.915Z,1.83
2018-07-04T09:15:37.439Z,2.60
2018-07-04T09:18:16.951Z,2.00
2018-07-04T09:20:56.407Z,2.33
2018-07-04T09:23:35.976Z,3.83
2018-07-04T09:26:15.551Z,3.03
2018-07-04T09:28:55.007Z,3.43
2018-07-04T09:31:34.819Z,4.53
2018-07-04T09:34:14.352Z,2.73
2018-07-04T09:36:54.011Z,1.83
2018-07-04T09:39:33.695Z,2.60
2018-07-04T09:42:13.274Z,3.60
2018-07-04T09:44:52.875Z,4.07
2018-07-04T09:47:32.340Z,1.90
2018-07-04T09:50:12.035Z,2.63
2018-07-04T09:52:51.636Z,2.20
2018-07-04T09:55:31.240Z,2.30
2018-07-04T09:58:10.926Z,2.33
2018-07-04T10:00:56.051Z,2.67
2018-07-04T10:03:35.667Z,2.87
2018-07-04T10:06:15.179Z,1.73
2018-07-04T10:08:54.840Z,1.97
2018-07-04T10:11:34.411Z,1.93
2018-07-04T10:14:14.126Z,2.33
2018-07-04T10:16:53.671Z,1.90
2018-07-04T10:19:33.471Z,2.90
2018-07-04T10:22:13.001Z,1.10
2018-07-04T10:24:52.635Z,1.60
2018-07-04T10:27:32.239Z,3.40
2018-07-04T10:30:11.874Z,5.07
2018-07-04T10:32:51.492Z,2.03
2018-07-04T10:35:31.100Z,1.50
2018-07-04T10:38:10.620Z,1.87
2018-07-04T10:40:50.150Z,2.83
2018-07-04T10:43:29.582Z,1.97
2018-07-04T10:46:09.062Z,2.10
2018-07-04T10:48:48.712Z,1.53
2018-07-04T10:51:28.172Z,1.83
2018-07-04T10:54:07.963Z,1.00
2018-07-04T10:56:47.612Z,4.00
2018-07-04T10:59:27.162Z,2.37
2018-07-04T11:02:06.719Z,2.00
2018-07-04T11:04:46.198Z,2.53
2018-07-04T11:07:25.738Z,2.47
2018-07-04T11:10:05.305Z,2.23
2018-07-04T11:12:45.267Z,1.77
2018-07-04T11:15:24.877Z,1.20
2018-07-04T11:18:04.446Z,1.97
2018-07-04T11:20:44.119Z,1.67
2018-07-04T11:23:23.667Z,2.43
2018-07-04T11:26:03.222Z,3.27
2018-07-04T11:28:42.672Z,1.93
2018-07-04T11:31:22.542Z,2.80
2018-07-04T11:34:02.075Z,0.87
2018-07-04T11:36:41.558Z,2.00
2018-07-04T11:39:21.260Z,2.77
2018-07-04T11:42:00.810Z,1.57
2018-07-04T11:44:40.245Z,2.10
2018-07-04T11:47:07.447Z,3.33
2018-07-04T11:49:34.615Z,1.50
2018-07-04T11:52:01.767Z,1.43
2018-07-04T11:54:28.926Z,1.10
2018-07-04T11:56:56.095Z,2.53
2018-07-04T11:59:23.239Z,2.23
2018-07-04T12:01:50.395Z,1.10
2018-07-04T12:04:29.791Z,1.70
2018-07-04T12:07:09.155Z,1.93
2018-07-04T12:09:38.458Z,2.00
2018-07-04T12:12:05.622Z,1.63
2018-07-04T12:14:33.079Z,1.13
2018-07-04T12:17:00.423Z,1.73
2018-07-04T12:19:27.879Z,1.30
2018-07-04T12:21:55.073Z,1.60
2018-07-04T12:24:22.267Z,1.43
2018-07-04T12:26:49.440Z,1.10
2018-07-04T12:29:16.592Z,0.97
2018-07-04T12:31:43.747Z,1.93
2018-07-04T12:34:10.919Z,4.10
2018-07-04T12:36:38.063Z,2.07
2018-07-04T12:39:05.479Z,17.27
2018-07-04T12:41:32.667Z,2.63
2018-07-04T12:43:59.860Z,5.50
2018-07-04T12:46:27.064Z,3.10
2018-07-04T12:48:58.475Z,5.13
2018-07-04T12:51:25.903Z,4.67
2018-07-04T12:53:57.335Z,1.97
2018-07-04T12:56:37.015Z,3.53
2018-07-04T12:59:16.755Z,2.50
2018-07-04T13:01:56.263Z,3.87
2018-07-04T13:04:35.855Z,3.40
2018-07-04T13:07:15.483Z,3.67
2018-07-04T13:09:54.964Z,1.37
2018-07-04T13:12:34.652Z,2.97
2018-07-04T13:15:14.191Z,2.07
2018-07-04T13:17:53.731Z,2.53
2018-07-04T13:20:33.367Z,2.77
2018-07-04T13:23:12.963Z,1.17
2018-07-04T13:25:52.605Z,2.37
2018-07-04T13:28:32.267Z,3.57
2018-07-04T13:31:11.899Z,2.37
2018-07-04T13:33:51.631Z,3.03
2018-07-04T13:36:31.287Z,1.57
2018-07-04T13:39:11.031Z,4.73
2018-07-04T13:41:50.603Z,1.47
2018-07-04T13:44:30.321Z,1.67
2018-07-04T13:47:09.875Z,4.00
2018-07-04T13:49:49.419Z,2.93
2018-07-04T13:52:29.059Z,4.30
2018-07-04T13:55:08.639Z,3.90
2018-07-04T13:57:48.155Z,2.20
2018-07-04T14:00:27.562Z,1.80
2018-07-04T14:03:07.178Z,1.10
2018-07-04T14:05:46.831Z,1.93
2018-07-04T14:08:26.394Z,1.73
2018-07-04T14:11:06.010Z,3.00
2018-07-04T14:13:45.682Z,5.90
2018-07-04T14:16:25.110Z,2.87
2018-07-04T14:19:04.668Z,3.23
2018-07-04T14:21:44.392Z,1.47
2018-07-04T14:24:24.315Z,3.17
2018-07-04T14:27:04.031Z,1.53
2018-07-04T14:29:43.567Z,1.90
2018-07-04T14:32:23.139Z,3.40
2018-07-04T14:35:02.830Z,1.17
2018-07-04T14:37:42.501Z,3.20
2018-07-04T14:40:22.051Z,6.60
2018-07-04T14:43:01.543Z,2.00
2018-07-04T14:45:41.072Z,2.80
2018-07-04T14:48:20.731Z,3.20
2018-07-04T14:51:00.264Z,1.13
2018-07-04T14:53:39.727Z,0.80
2018-07-04T14:56:19.307Z,2.63
2018-07-04T14:58:58.747Z,5.13
2018-07-04T15:01:38.234Z,2.27
2018-07-04T15:04:17.934Z,2.27
2018-07-04T15:06:57.491Z,3.97
2018-07-04T15:09:37.156Z,2.20
2018-07-04T15:12:16.710Z,1.53
2018-07-04T15:14:56.282Z,1.43
2018-07-04T15:17:35.907Z,2.83
2018-07-04T15:20:15.279Z,3.37
2018-07-04T15:22:54.847Z,1.63
2018-07-04T15:25:34.486Z,1.30
2018-07-04T15:28:08.171Z,3.00
2018-07-04T15:30:47.928Z,7.37
2018-07-04T15:33:27.429Z,1.43
2018-07-04T15:36:07.075Z,1.87
2018-07-04T15:38:46.615Z,2.93
2018-07-04T15:41:26.015Z,0.90
2018-07-04T15:44:05.682Z,4.60
2018-07-04T15:46:45.375Z,0.60
2018-07-04T15:49:25.011Z,2.43
2018-07-04T15:52:04.967Z,1.70
2018-07-04T15:54:44.611Z,1.37
2018-07-04T15:57:24.290Z,2.03
2018-07-04T16:00:03.658Z,0.90
2018-07-04T16:02:43.114Z,6.23
2018-07-04T16:05:22.999Z,2.00
2018-07-04T16:08:02.550Z,0.77
2018-07-04T16:10:41.900Z,2.00
2018-07-04T16:13:21.410Z,1.10
2018-07-04T16:16:00.837Z,1.50
2018-07-04T16:18:40.312Z,1.73
2018-07-04T16:21:19.766Z,1.10
2018-07-04T16:23:59.342Z,2.37
2018-07-04T16:26:38.918Z,3.47
2018-07-04T16:29:18.399Z,0.90
2018-07-04T16:31:57.905Z,1.20
2018-07-04T16:34:37.435Z,1.50
2018-07-04T16:37:17.098Z,0.77
2018-07-04T16:39:56.870Z,1.20
2018-07-04T16:42:36.386Z,1.40
2018-07-04T16:45:15.871Z,2.33
2018-07-04T16:47:55.488Z,3.43
2018-07-04T16:50:35.107Z,1.33
2018-07-04T16:53:14.807Z,0.77
2018-07-04T16:55:54.294Z,1.07
2018-07-04T16:58:33.735Z,1.23
2018-07-04T17:01:13.182Z,1.07
2018-07-04T17:03:52.577Z,1.63
2018-07-04T17:06:32.059Z,1.90
2018-07-04T17:09:11.740Z,3.53
2018-07-04T17:11:51.484Z,1.17
2018-07-04T17:14:31.215Z,1.17
2018-07-04T17:17:11.353Z,1.43
2018-07-04T17:19:51.179Z,3.37
2018-07-04T17:22:30.703Z,4.37
2018-07-04T17:25:10.306Z,6.77
2018-07-04T17:27:49.840Z,5.13
2018-07-04T17:30:29.507Z,7.13
2018-07-04T17:33:09.155Z,8.03
2018-07-04T17:35:48.699Z,5.83
2018-07-04T17:38:28.279Z,5.93
2018-07-04T17:41:07.939Z,4.77
2018-07-04T17:43:47.607Z,5.43
2018-07-04T17:46:27.088Z,4.97
2018-07-04T17:49:06.703Z,2.77
2018-07-04T17:51:46.291Z,3.93
2018-07-04T17:54:25.835Z,3.93
2018-07-04T17:57:05.415Z,1.90
2018-07-04T17:59:44.832Z,4.37
2018-07-04T18:02:24.403Z,4.00
2018-07-04T18:05:03.711Z,3.67
2018-07-04T18:07:43.336Z,4.50
2018-07-04T18:10:22.901Z,7.37
2018-07-04T18:13:02.447Z,2.90
2018-07-04T18:15:42.087Z,3.30
2018-07-04T18:18:21.746Z,4.23
2018-07-04T18:21:05.586Z,8.13
2018-07-04T18:23:45.176Z,3.90
2018-07-04T18:26:24.639Z,2.47
2018-07-04T18:29:04.406Z,5.93
2018-07-04T18:31:44.136Z,3.07
2018-07-04T18:34:23.644Z,2.33
2018-07-04T18:37:03.123Z,4.50
2018-07-04T18:39:42.751Z,3.87
2018-07-04T18:42:22.406Z,1.93
2018-07-04T18:45:01.754Z,3.17
2018-07-04T18:47:41.184Z,2.97
2018-07-04T18:50:21.283Z,5.07
2018-07-04T18:53:00.942Z,3.87
2018-07-04T18:55:40.463Z,1.73
2018-07-04T18:58:20.011Z,2.63
2018-07-04T19:00:59.682Z,1.83
2018-07-04T19:03:39.362Z,3.50
2018-07-04T19:06:18.974Z,2.60
2018-07-04T19:08:58.665Z,2.70
2018-07-04T19:11:38.135Z,11.60
2018-07-04T19:14:17.634Z,11.70
2018-07-04T19:16:57.339Z,5.33
2018-07-04T19:19:36.879Z,6.10
2018-07-04T19:22:16.273Z,3.43
2018-07-04T19:24:55.862Z,5.40
2018-07-04T19:27:35.443Z,2.83
2018-07-04T19:30:15.044Z,6.47
2018-07-04T19:32:54.766Z,7.70
2018-07-04T19:35:34.623Z,5.93
2018-07-04T19:38:14.230Z,3.37
2018-07-04T19:40:53.754Z,4.43
2018-07-04T19:43:33.315Z,4.57
2018-07-04T19:46:12.966Z,2.80
2018-07-04T19:48:52.495Z,3.67
2018-07-04T19:51:32.266Z,2.37
2018-07-04T19:54:11.884Z,4.37
2018-07-04T19:56:51.419Z,6.33
2018-07-04T19:59:31.334Z,4.97
2018-07-04T20:02:10.834Z,6.73
2018-07-04T20:04:50.371Z,7.27
2018-07-04T20:07:30.035Z,7.33
2018-07-04T20:10:09.648Z,12.87
2018-07-04T20:12:49.175Z,20.17
2018-07-04T20:15:28.832Z,29.33
2018-07-04T20:18:08.719Z,51.57
2018-07-04T20:20:48.377Z,34.23
2018-07-04T20:23:28.162Z,23.30
2018-07-04T20:26:07.710Z,23.13
2018-07-04T20:28:47.461Z,25.03
2018-07-04T20:31:26.855Z,19.67
2018-07-04T20:34:06.291Z,20.53
2018-07-04T20:36:45.791Z,17.97
2018-07-04T20:39:25.318Z,13.47
2018-07-04T20:42:04.902Z,17.90
2018-07-04T20:44:45.659Z,13.90
2018-07-04T20:47:25.232Z,21.70
2018-07-04T20:50:04.626Z,10.90
2018-07-04T20:52:44.182Z,14.37
2018-07-04T20:55:23.679Z,15.23
2018-07-04T20:58:03.267Z,10.70
2018-07-04T21:00:42.742Z,9.37
2018-07-04T21:03:22.356Z,18.80
2018-07-04T21:06:02.113Z,8.73
2018-07-04T21:08:41.750Z,14.33
2018-07-04T21:11:21.314Z,8.93
2018-07-04T21:14:01.451Z,10.77
2018-07-04T21:16:41.791Z,9.27
2018-07-04T21:19:21.430Z,8.23
2018-07-04T21:22:01.145Z,11.70
2018-07-04T21:24:40.887Z,9.17
2018-07-04T21:27:20.459Z,9.50
2018-07-04T21:30:00.278Z,14.40
2018-07-04T21:32:40.435Z,12.50
2018-07-04T21:35:20.075Z,10.10
2018-07-04T21:37:59.671Z,6.70
2018-07-04T21:40:39.010Z,7.60
2018-07-04T21:43:18.783Z,6.87
2018-07-04T21:45:58.415Z,10.40
2018-07-04T21:48:38.030Z,8.67
2018-07-04T21:51:17.970Z,9.13
2018-07-04T21:53:57.370Z,6.40
2018-07-04T21:56:37.255Z,5.73
2018-07-04T21:59:16.814Z,4.17
2018-07-04T22:01:56.399Z,6.00
2018-07-04T22:04:36.103Z,4.20
2018-07-04T22:07:09.715Z,4.40
2018-07-04T22:09:49.472Z,6.27
2018-07-04T22:12:28.951Z,5.63
2018-07-04T22:15:08.537Z,9.60
2018-07-04T22:17:48.338Z,3.43
2018-07-04T22:20:28.043Z,4.07
2018-07-04T22:23:07.598Z,4.60
2018-07-04T22:25:47.194Z,6.93
2018-07-04T22:28:26.870Z,2.50
2018-07-04T22:31:06.486Z,4.23
2018-07-04T22:33:45.951Z,3.57
2018-07-04T22:36:25.579Z,5.67
2018-07-04T22:39:05.634Z,4.77
2018-07-04T22:41:45.087Z,3.93
2018-07-04T22:44:24.742Z,3.07
2018-07-04T22:47:04.266Z,1.80
2018-07-04T22:49:43.795Z,4.03
2018-07-04T22:52:23.458Z,2.50
2018-07-04T22:55:02.970Z,5.53
2018-07-04T22:57:42.616Z,2.60
2018-07-04T23:00:22.369Z,2.73
2018-07-04T23:03:01.996Z,2.50
2018-07-04T23:05:41.619Z,1.90
2018-07-04T23:08:21.202Z,2.93
2018-07-04T23:11:00.614Z,2.20
2018-07-04T23:13:40.306Z,1.87
2018-07-04T23:16:19.915Z,1.90
2018-07-04T23:18:59.441Z,4.67
2018-07-04T23:21:38.999Z,1.10
2018-07-04T23:24:18.491Z,2.00
2018-07-04T23:26:58.404Z,1.30
2018-07-04T23:29:37.903Z,1.23
2018-07-04T23:32:17.512Z,2.57
2018-07-04T23:34:57.142Z,1.30
2018-07-04T23:37:36.623Z,1.27
2018-07-04T23:40:16.294Z,1.93
2018-07-04T23:42:55.899Z,1.33
2018-07-04T23:45:35.502Z,1.83
2018-07-04T23:48:14.983Z,4.00
2018-07-04T23:50:54.546Z,2.03
2018-07-04T23:53:34.107Z,2.30
2018-07-04T23:56:13.720Z,2.03
2018-07-04T23:58:53.367Z,1.77
